createdAt,value
2022-10-13T00:01:54.006Z,13.53
2022-10-13T00:04:39.364Z,13.55
2022-10-13T00:07:24.530Z,13.45
2022-10-13T00:10:09.989Z,13.58
2022-10-13T00:12:55.121Z,13.57
2022-10-13T00:15:42.373Z,13.55
2022-10-13T00:18:27.590Z,13.54
2022-10-13T00:21:15.910Z,13.53
2022-10-13T00:24:01.057Z,13.51
2022-10-13T00:26:45.990Z,13.46
2022-10-13T00:29:30.918Z,13.44
2022-10-13T00:32:16.495Z,13.39
2022-10-13T00:35:01.939Z,13.36
2022-10-13T00:37:47.068Z,13.44
2022-10-13T00:40:32.042Z,13.40
2022-10-13T00:43:24.259Z,13.37
2022-10-13T00:46:09.311Z,13.39
2022-10-13T00:48:56.792Z,13.38
2022-10-13T00:51:46.894Z,13.38
2022-10-13T00:54:32.069Z,13.31
2022-10-13T00:57:20.478Z,13.23
2022-10-13T01:00:06.998Z,13.31
2022-10-13T01:02:52.025Z,13.30
2022-10-13T01:05:39.314Z,13.17
2022-10-13T01:08:27.061Z,13.29
2022-10-13T01:11:15.535Z,13.06
2022-10-13T01:14:21.394Z,13.30
2022-10-13T01:17:09.619Z,13.34
2022-10-13T01:20:06.740Z,13.30
2022-10-13T01:22:54.638Z,13.29
2022-10-13T01:26:18.283Z,13.27
2022-10-13T01:29:20.930Z,13.28
2022-10-13T01:32:34.939Z,13.14
2022-10-13T01:35:54.803Z,13.21
2022-10-13T01:38:53.108Z,13.11
2022-10-13T01:41:41.322Z,13.13
2022-10-13T01:44:32.619Z,13.16
2022-10-13T01:47:19.122Z,13.17
2022-10-13T01:50:06.701Z,13.16
2022-10-13T01:52:52.830Z,13.15
2022-10-13T01:55:47.952Z,13.16
2022-10-13T01:58:36.127Z,13.09
2022-10-13T02:01:24.362Z,13.18
2022-10-13T02:04:35.930Z,13.07
2022-10-13T02:07:28.055Z,13.14
2022-10-13T02:10:20.393Z,13.16
2022-10-13T02:13:08.615Z,13.19
2022-10-13T02:15:57.773Z,13.19
2022-10-13T02:18:44.173Z,13.17
2022-10-13T02:21:29.140Z,13.15
2022-10-13T02:24:14.828Z,13.15
2022-10-13T02:27:00.087Z,13.10
2022-10-13T02:29:50.292Z,13.06
2022-10-13T02:32:35.651Z,13.07
2022-10-13T02:35:21.075Z,13.00
2022-10-13T02:38:06.578Z,13.10
2022-10-13T02:40:51.844Z,13.08
2022-10-13T02:43:38.658Z,13.10
2022-10-13T02:46:23.831Z,13.09
2022-10-13T02:49:10.303Z,13.16
2022-10-13T02:51:55.366Z,13.00
2022-10-13T02:54:40.204Z,13.11
2022-10-13T02:57:25.241Z,13.15
2022-10-13T03:00:11.009Z,13.14
2022-10-13T03:02:56.402Z,13.17
2022-10-13T03:05:41.503Z,13.20
2022-10-13T03:08:27.133Z,13.15
2022-10-13T03:11:11.972Z,13.14
2022-10-13T03:13:57.326Z,13.13
2022-10-13T03:16:42.255Z,13.12
2022-10-13T03:19:27.217Z,13.10
2022-10-13T03:22:15.289Z,13.12
2022-10-13T03:25:00.857Z,13.09
2022-10-13T03:27:46.065Z,13.11
2022-10-13T03:30:30.957Z,13.10
2022-10-13T03:33:16.209Z,13.10
2022-10-13T03:36:02.393Z,12.94
2022-10-13T03:38:47.371Z,13.09
2022-10-13T03:41:32.557Z,13.08
2022-10-13T03:44:17.774Z,13.05
2022-10-13T03:47:03.099Z,12.95
2022-10-13T03:49:47.966Z,13.06
2022-10-13T03:52:33.222Z,12.97
2022-10-13T03:55:18.259Z,12.92
2022-10-13T03:58:03.553Z,12.91
2022-10-13T04:00:49.174Z,12.68
2022-10-13T04:03:34.750Z,12.90
2022-10-13T04:06:20.191Z,12.90
2022-10-13T04:09:05.649Z,12.89
2022-10-13T04:11:51.619Z,12.87
2022-10-13T04:14:36.665Z,12.88
2022-10-13T04:17:21.594Z,12.87
2022-10-13T04:20:07.372Z,12.84
2022-10-13T04:22:52.280Z,12.86
2022-10-13T04:25:39.131Z,12.82
2022-10-13T04:28:24.773Z,12.72
2022-10-13T04:31:10.067Z,12.73
2022-10-13T04:33:55.466Z,12.76
2022-10-13T04:36:40.730Z,12.65
2022-10-13T04:39:25.579Z,12.76
2022-10-13T04:42:10.843Z,12.62
2022-10-13T04:44:55.672Z,12.74
2022-10-13T04:47:40.800Z,12.72
2022-10-13T04:50:25.952Z,12.60
2022-10-13T04:53:14.253Z,12.71
2022-10-13T04:56:08.320Z,12.72
2022-10-13T04:58:53.601Z,12.71
2022-10-13T05:01:38.948Z,12.67
2022-10-13T05:04:24.272Z,12.49
2022-10-13T05:07:18.362Z,12.63
2022-10-13T05:10:05.383Z,12.58
2022-10-13T05:12:51.592Z,12.64
2022-10-13T05:15:39.388Z,12.68
2022-10-13T05:18:25.170Z,12.56
2022-10-13T05:21:14.946Z,12.54
2022-10-13T05:24:02.289Z,12.64
2022-10-13T05:26:47.333Z,12.64
2022-10-13T05:29:32.518Z,12.65
2022-10-13T05:32:17.875Z,12.64
2022-10-13T05:35:03.372Z,12.60
2022-10-13T05:37:48.495Z,12.60
2022-10-13T05:40:33.567Z,12.58
2022-10-13T05:43:18.597Z,12.56
2022-10-13T05:46:04.342Z,12.55
2022-10-13T05:48:49.810Z,12.47
2022-10-13T05:51:53.635Z,12.57
2022-10-13T05:54:52.828Z,12.57
2022-10-13T05:57:42.061Z,12.57
2022-10-13T06:00:28.733Z,12.53
2022-10-13T06:03:17.557Z,12.56
2022-10-13T06:06:03.066Z,12.55
2022-10-13T06:08:49.560Z,12.54
2022-10-13T06:11:34.538Z,12.51
2022-10-13T06:14:19.796Z,12.52
2022-10-13T06:17:05.069Z,12.43
2022-10-13T06:19:50.462Z,12.52
2022-10-13T06:22:36.761Z,12.49
2022-10-13T06:25:21.837Z,12.49
2022-10-13T06:28:07.186Z,12.49
2022-10-13T06:30:56.905Z,12.35
2022-10-13T06:33:41.936Z,12.35
2022-10-13T06:36:27.662Z,12.44
2022-10-13T06:39:12.929Z,12.45
2022-10-13T06:41:58.046Z,12.39
2022-10-13T06:44:43.258Z,12.46
2022-10-13T06:47:28.291Z,12.47
2022-10-13T06:50:13.662Z,12.50
2022-10-13T06:52:59.215Z,12.52
2022-10-13T06:55:47.041Z,12.56
2022-10-13T06:58:35.646Z,12.57
2022-10-13T07:01:20.652Z,12.35
2022-10-13T07:04:06.496Z,12.56
2022-10-13T07:06:51.724Z,12.56
2022-10-13T07:09:36.703Z,12.54
2022-10-13T07:12:22.417Z,12.54
2022-10-13T07:15:08.380Z,12.46
2022-10-13T07:17:54.896Z,12.55
2022-10-13T07:20:39.833Z,12.57
2022-10-13T07:23:26.315Z,12.58
2022-10-13T07:26:14.674Z,12.61
2022-10-13T07:29:00.555Z,12.60
2022-10-13T07:31:46.398Z,12.67
2022-10-13T07:34:31.543Z,12.57
2022-10-13T07:37:16.829Z,12.70
2022-10-13T07:40:02.830Z,12.65
2022-10-13T07:42:48.093Z,12.66
2022-10-13T07:45:33.331Z,12.56
2022-10-13T07:48:18.432Z,12.65
2022-10-13T07:51:09.565Z,12.69
2022-10-13T07:53:54.608Z,12.70
2022-10-13T07:56:39.473Z,12.63
2022-10-13T07:59:24.448Z,12.78
2022-10-13T08:02:10.355Z,12.82
2022-10-13T08:04:55.263Z,12.73
2022-10-13T08:07:40.328Z,12.91
2022-10-13T08:10:26.415Z,12.97
2022-10-13T08:13:11.650Z,12.93
2022-10-13T08:16:00.320Z,13.05
2022-10-13T08:18:46.013Z,13.11
2022-10-13T08:24:36.405Z,13.25
2022-10-13T08:27:37.027Z,13.29
2022-10-13T08:30:31.097Z,13.37
2022-10-13T08:33:16.363Z,13.29
2022-10-13T08:36:01.527Z,13.44
2022-10-13T08:38:47.163Z,13.42
2022-10-13T08:41:37.778Z,13.44
2022-10-13T08:45:21.770Z,13.49
2022-10-13T08:47:47.004Z,13.50
2022-10-13T08:50:35.963Z,13.52
2022-10-13T08:53:34.225Z,13.39
2022-10-13T08:56:24.552Z,13.51
2022-10-13T08:59:14.783Z,13.56
2022-10-13T09:02:00.163Z,13.39
2022-10-13T09:04:49.305Z,13.64
2022-10-13T09:07:37.143Z,13.71
2022-10-13T09:10:22.260Z,13.74
2022-10-13T09:13:09.197Z,13.82
2022-10-13T09:15:56.313Z,13.79
2022-10-13T09:18:41.775Z,13.92
2022-10-13T09:21:26.875Z,13.91
2022-10-13T09:24:16.628Z,13.95
2022-10-13T09:27:12.025Z,14.05
2022-10-13T09:29:56.955Z,14.17
2022-10-13T09:32:41.822Z,14.17
2022-10-13T09:35:26.939Z,14.17
2022-10-13T09:38:22.280Z,14.09
2022-10-13T09:41:10.268Z,14.21
2022-10-13T09:43:55.043Z,14.21
2022-10-13T09:46:53.741Z,14.11
2022-10-13T09:49:41.409Z,14.33
2022-10-13T09:52:27.761Z,14.37
2022-10-13T09:55:32.908Z,14.47
2022-10-13T09:58:34.086Z,14.41
2022-10-13T10:01:26.279Z,14.46
2022-10-13T10:04:16.223Z,14.52
2022-10-13T10:07:09.658Z,14.51
2022-10-13T10:09:58.169Z,14.57
2022-10-13T10:12:44.287Z,14.55
2022-10-13T10:15:49.737Z,14.67
2022-10-13T10:18:58.949Z,14.75
2022-10-13T10:22:04.216Z,14.88
2022-10-13T10:25:02.864Z,14.89
2022-10-13T10:28:24.135Z,14.91
2022-10-13T10:31:21.209Z,14.91
2022-10-13T10:34:32.230Z,14.91
2022-10-13T10:37:21.383Z,14.85
2022-10-13T10:40:31.205Z,14.85
2022-10-13T10:43:48.842Z,14.95
2022-10-13T10:46:42.336Z,14.98
2022-10-13T10:49:32.469Z,15.05
2022-10-13T10:52:26.715Z,15.08
2022-10-13T10:55:34.760Z,15.14
2022-10-13T10:58:38.600Z,15.21
2022-10-13T11:01:34.640Z,15.14
2022-10-13T11:04:33.073Z,15.33
2022-10-13T11:07:24.358Z,15.42
2022-10-13T11:10:18.322Z,15.52
2022-10-13T11:13:16.825Z,15.63
2022-10-13T11:16:31.181Z,15.66
2022-10-13T11:19:31.999Z,15.66
2022-10-13T11:22:20.667Z,15.65
2022-10-13T11:25:43.691Z,15.70
2022-10-13T11:28:41.083Z,15.67
2022-10-13T11:31:48.114Z,15.65
2022-10-13T11:34:34.221Z,15.61
2022-10-13T11:37:19.298Z,15.57
2022-10-13T11:40:28.704Z,15.58
2022-10-13T11:43:13.907Z,15.44
2022-10-13T11:46:14.254Z,15.43
2022-10-13T11:49:14.784Z,15.42
2022-10-13T11:52:19.805Z,15.33
2022-10-13T11:55:17.358Z,15.36
2022-10-13T11:58:32.325Z,15.35
2022-10-13T12:01:19.068Z,15.22
2022-10-13T12:04:14.392Z,15.16
2022-10-13T12:07:05.867Z,15.11
2022-10-13T12:09:54.286Z,15.09
2022-10-13T12:12:47.348Z,15.21
2022-10-13T12:15:35.875Z,15.33
2022-10-13T12:18:35.762Z,15.37
2022-10-13T12:21:23.088Z,15.42
2022-10-13T12:24:09.610Z,15.45
2022-10-13T12:26:55.624Z,15.54
2022-10-13T12:29:41.468Z,15.72
2022-10-13T12:32:32.062Z,15.56
2022-10-13T12:35:20.231Z,15.54
2022-10-13T12:38:19.143Z,15.32
2022-10-13T12:41:04.341Z,15.76
2022-10-13T12:43:50.478Z,15.76
2022-10-13T12:46:59.176Z,15.78
2022-10-13T12:49:44.729Z,16.01
2022-10-13T12:52:30.386Z,16.07
2022-10-13T12:55:19.205Z,16.08
2022-10-13T12:58:04.555Z,16.06
2022-10-13T13:01:14.161Z,16.15
2022-10-13T13:04:02.403Z,16.10
2022-10-13T13:07:00.969Z,16.08
2022-10-13T13:10:00.164Z,16.12
2022-10-13T13:12:47.301Z,16.13
2022-10-13T13:15:34.609Z,16.08
2022-10-13T13:18:39.706Z,16.09
2022-10-13T13:21:24.846Z,16.20
2022-10-13T13:24:21.789Z,16.31
2022-10-13T13:27:17.761Z,16.54
2022-10-13T13:30:02.981Z,16.65
2022-10-13T13:32:48.451Z,16.62
2022-10-13T13:35:33.777Z,16.73
2022-10-13T13:38:19.444Z,16.81
2022-10-13T13:41:04.854Z,16.78
2022-10-13T13:43:50.156Z,16.71
2022-10-13T13:46:35.133Z,16.65
2022-10-13T13:49:20.393Z,16.69
2022-10-13T13:52:05.282Z,16.69
2022-10-13T13:54:51.185Z,16.58
2022-10-13T13:57:36.620Z,16.53
2022-10-13T14:00:22.638Z,16.69
2022-10-13T14:03:07.774Z,16.81
2022-10-13T14:05:52.930Z,16.79
2022-10-13T14:08:42.247Z,16.81
2022-10-13T14:11:27.829Z,16.82
2022-10-13T14:14:13.033Z,17.01
2022-10-13T14:16:59.918Z,17.08
2022-10-13T14:19:45.107Z,17.06
2022-10-13T14:22:30.083Z,16.99
2022-10-13T14:25:15.210Z,16.95
2022-10-13T14:28:00.348Z,17.12
2022-10-13T14:30:45.350Z,17.17
2022-10-13T14:33:30.646Z,17.31
2022-10-13T14:36:15.685Z,17.42
2022-10-13T14:39:01.299Z,17.82
2022-10-13T14:41:46.685Z,18.15
2022-10-13T14:44:32.052Z,17.66
2022-10-13T14:47:17.001Z,17.52
2022-10-13T14:50:02.820Z,17.47
2022-10-13T14:52:48.028Z,17.35
2022-10-13T14:55:33.152Z,17.49
2022-10-13T14:58:18.210Z,17.40
2022-10-13T15:01:03.665Z,17.66
2022-10-13T15:03:49.040Z,18.01
2022-10-13T15:06:34.159Z,18.01
2022-10-13T15:09:21.053Z,17.76
2022-10-13T15:12:10.823Z,17.39
2022-10-13T15:14:55.793Z,17.32
2022-10-13T15:17:40.602Z,16.97
2022-10-13T15:20:25.679Z,17.03
2022-10-13T15:23:10.898Z,17.03
2022-10-13T15:25:58.265Z,16.96
2022-10-13T15:28:45.797Z,16.86
2022-10-13T15:31:31.016Z,16.73
2022-10-13T15:34:16.243Z,16.61
2022-10-13T15:37:01.298Z,16.43
2022-10-13T15:39:46.261Z,16.40
2022-10-13T15:42:31.245Z,16.06
2022-10-13T15:45:16.277Z,16.34
2022-10-13T15:48:02.597Z,16.28
2022-10-13T15:50:47.679Z,16.17
2022-10-13T15:53:32.820Z,16.08
2022-10-13T15:56:18.108Z,16.08
2022-10-13T15:59:04.048Z,16.01
2022-10-13T16:01:49.355Z,15.88
2022-10-13T16:04:37.504Z,15.76
2022-10-13T16:07:22.842Z,15.73
2022-10-13T16:10:09.950Z,15.62
2022-10-13T16:12:55.048Z,15.62
2022-10-13T16:15:40.513Z,15.61
2022-10-13T16:18:33.815Z,15.46
2022-10-13T16:21:25.871Z,15.55
2022-10-13T16:24:11.046Z,15.67
2022-10-13T16:26:56.164Z,15.62
2022-10-13T16:29:41.403Z,15.60
2022-10-13T16:32:26.413Z,15.44
2022-10-13T16:35:11.892Z,15.46
2022-10-13T16:37:57.019Z,15.43
2022-10-13T16:40:42.054Z,15.44
2022-10-13T16:43:27.101Z,15.44
2022-10-13T16:46:14.027Z,15.41
2022-10-13T16:48:59.283Z,15.32
2022-10-13T16:51:44.211Z,15.38
2022-10-13T16:54:29.822Z,15.33
2022-10-13T16:57:14.886Z,15.19
2022-10-13T17:00:00.171Z,15.27
2022-10-13T17:02:45.533Z,15.22
2022-10-13T17:05:30.878Z,15.12
2022-10-13T17:08:16.109Z,15.18
2022-10-13T17:11:01.253Z,15.07
2022-10-13T17:13:46.614Z,15.12
2022-10-13T17:16:32.728Z,15.09
2022-10-13T17:19:17.858Z,15.03
2022-10-13T17:22:02.895Z,14.96
2022-10-13T17:24:48.472Z,14.96
2022-10-13T17:27:37.240Z,14.95
2022-10-13T17:30:22.564Z,14.92
2022-10-13T17:33:08.739Z,14.90
2022-10-13T17:35:59.339Z,14.86
2022-10-13T17:38:45.826Z,14.79
2022-10-13T17:41:31.245Z,14.71
2022-10-13T17:44:20.412Z,14.68
2022-10-13T17:47:05.613Z,14.71
2022-10-13T17:49:50.790Z,14.65
2022-10-13T17:52:36.051Z,14.56
2022-10-13T17:55:21.089Z,14.70
2022-10-13T17:58:06.210Z,14.70
2022-10-13T18:01:11.793Z,14.67
2022-10-13T18:03:59.017Z,14.67
2022-10-13T18:06:45.032Z,14.66
2022-10-13T18:09:30.197Z,14.59
2022-10-13T18:12:15.662Z,14.61
2022-10-13T18:15:00.841Z,14.59
2022-10-13T18:17:46.242Z,14.61
2022-10-13T18:20:31.586Z,14.46
2022-10-13T18:23:16.604Z,14.56
2022-10-13T18:26:18.878Z,14.58
2022-10-13T18:29:06.090Z,14.59
2022-10-13T18:31:50.931Z,14.49
2022-10-13T18:34:36.206Z,14.44
2022-10-13T18:37:22.009Z,14.35
2022-10-13T18:40:07.951Z,14.25
2022-10-13T18:42:54.916Z,14.12
2022-10-13T18:45:40.210Z,14.20
2022-10-13T18:48:25.269Z,14.10
2022-10-13T18:51:15.897Z,14.24
2022-10-13T18:54:01.472Z,14.26
2022-10-13T18:56:46.509Z,14.26
2022-10-13T18:59:31.654Z,14.26
2022-10-13T19:02:16.993Z,14.18
2022-10-13T19:05:02.201Z,14.09
2022-10-13T19:07:47.311Z,14.12
2022-10-13T19:10:32.436Z,14.12
2022-10-13T19:13:18.390Z,14.08
2022-10-13T19:16:03.883Z,14.05
2022-10-13T19:18:50.175Z,13.94
2022-10-13T19:21:37.084Z,14.00
2022-10-13T19:24:22.281Z,13.93
2022-10-13T19:27:07.242Z,13.86
2022-10-13T19:29:52.591Z,13.79
2022-10-13T19:32:41.010Z,13.76
2022-10-13T19:35:26.690Z,13.76
2022-10-13T19:38:12.953Z,13.76
2022-10-13T19:41:02.633Z,13.71
2022-10-13T19:43:48.329Z,13.65
2022-10-13T19:46:35.338Z,13.64
2022-10-13T19:49:21.905Z,13.65
2022-10-13T19:52:06.927Z,13.64
2022-10-13T19:54:51.973Z,13.60
2022-10-13T19:57:37.069Z,13.48
2022-10-13T20:00:22.079Z,13.55
2022-10-13T20:03:06.984Z,13.40
2022-10-13T20:05:52.150Z,13.15
2022-10-13T20:08:37.345Z,13.16
2022-10-13T20:11:24.024Z,13.03
2022-10-13T20:14:09.606Z,12.91
2022-10-13T20:16:56.818Z,12.87
2022-10-13T20:19:43.282Z,12.85
2022-10-13T20:22:28.524Z,12.82
2022-10-13T20:25:15.113Z,12.97
2022-10-13T20:28:00.410Z,12.94
2022-10-13T20:30:45.339Z,12.86
2022-10-13T20:33:31.252Z,12.75
2022-10-13T20:36:17.812Z,12.66
2022-10-13T20:39:03.877Z,12.57
2022-10-13T20:41:49.117Z,12.46
2022-10-13T20:44:34.173Z,12.50
2022-10-13T20:47:19.704Z,12.35
2022-10-13T20:50:08.394Z,12.49
2022-10-13T20:52:53.329Z,12.44
2022-10-13T20:55:41.890Z,12.29
2022-10-13T20:58:32.192Z,12.42
2022-10-13T21:01:19.265Z,12.43
2022-10-13T21:04:05.212Z,12.32
2022-10-13T21:06:52.411Z,12.40
2022-10-13T21:09:37.766Z,12.40
2022-10-13T21:12:22.929Z,12.27
2022-10-13T21:15:08.706Z,12.35
2022-10-13T21:17:54.443Z,12.27
2022-10-13T21:20:43.599Z,12.25
2022-10-13T21:23:28.466Z,12.24
2022-10-13T21:26:16.352Z,12.14
2022-10-13T21:29:05.917Z,12.18
2022-10-13T21:31:50.882Z,12.03
2022-10-13T21:34:35.871Z,11.94
2022-10-13T21:37:21.395Z,11.90
2022-10-13T21:40:07.775Z,11.98
2022-10-13T21:42:53.209Z,12.02
2022-10-13T21:45:38.498Z,12.05
2022-10-13T21:48:23.675Z,12.02
2022-10-13T21:51:18.529Z,11.90
2022-10-13T21:54:07.840Z,11.82
2022-10-13T21:56:52.777Z,11.46
2022-10-13T21:59:38.228Z,11.61
2022-10-13T22:02:23.351Z,11.54
2022-10-13T22:05:08.936Z,11.48
2022-10-13T22:07:53.831Z,11.40
2022-10-13T22:10:38.868Z,11.41
2022-10-13T22:13:23.893Z,11.29
2022-10-13T22:16:18.635Z,11.20
2022-10-13T22:19:03.777Z,11.22
2022-10-13T22:21:50.212Z,11.22
2022-10-13T22:24:35.463Z,11.21
2022-10-13T22:27:20.592Z,11.22
2022-10-13T22:30:06.999Z,11.22
2022-10-13T22:32:51.829Z,11.09
2022-10-13T22:35:36.923Z,11.21
2022-10-13T22:38:22.127Z,11.18
2022-10-13T22:41:08.264Z,11.18
2022-10-13T22:43:55.745Z,11.10
2022-10-13T22:46:41.415Z,11.15
2022-10-13T22:49:26.414Z,11.16
2022-10-13T22:52:11.747Z,11.25
2022-10-13T22:54:56.605Z,11.21
2022-10-13T22:57:41.614Z,11.17
2022-10-13T23:00:26.498Z,11.15
2022-10-13T23:03:13.853Z,11.20
2022-10-13T23:05:59.022Z,11.23
2022-10-13T23:08:44.215Z,11.18
2022-10-13T23:11:29.479Z,11.15
2022-10-13T23:14:14.450Z,11.08
2022-10-13T23:16:59.383Z,11.04
2022-10-13T23:19:44.374Z,10.97
2022-10-13T23:22:29.346Z,11.07
2022-10-13T23:25:14.242Z,11.06
2022-10-13T23:27:59.522Z,11.04
2022-10-13T23:30:44.528Z,10.99
2022-10-13T23:33:30.145Z,10.93
2022-10-13T23:36:19.232Z,10.90
2022-10-13T23:39:06.314Z,10.78
2022-10-13T23:41:51.635Z,10.88
2022-10-13T23:44:36.775Z,10.84
2022-10-13T23:47:22.038Z,10.92
2022-10-13T23:50:07.337Z,10.83
2022-10-13T23:52:52.612Z,10.76
2022-10-13T23:55:39.334Z,10.82
2022-10-13T23:58:24.610Z,10.74
